createdAt,value
2023-07-24T00:02:44.259Z,4.28
2023-07-24T00:07:47.604Z,5.05
2023-07-24T00:12:52.285Z,4.30
2023-07-24T00:17:55.761Z,4.95
2023-07-24T00:22:59.130Z,4.15
2023-07-24T00:28:03.909Z,4.10
2023-07-24T00:33:07.929Z,3.75
2023-07-24T00:38:11.243Z,3.78
2023-07-24T00:43:15.975Z,4.75
2023-07-24T00:48:19.479Z,5.72
2023-07-24T00:53:23.073Z,4.43
2023-07-24T00:58:28.899Z,5.25
2023-07-24T01:03:36.574Z,4.88
2023-07-24T01:08:40.846Z,4.63
2023-07-24T01:13:53.404Z,4.45
2023-07-24T01:18:59.276Z,3.58
2023-07-24T01:24:12.248Z,5.85
2023-07-24T01:29:17.015Z,5.07
2023-07-24T01:34:20.320Z,7.00
2023-07-24T01:39:23.858Z,5.53
2023-07-24T01:44:28.608Z,6.90
2023-07-24T01:49:31.995Z,4.43
2023-07-24T01:54:35.325Z,6.93
2023-07-24T01:59:40.059Z,6.90
2023-07-24T02:04:43.469Z,6.40
2023-07-24T02:09:48.075Z,6.90
2023-07-24T02:14:53.332Z,6.03
2023-07-24T02:19:56.835Z,8.20
2023-07-24T02:25:00.253Z,7.78
2023-07-24T02:30:05.834Z,9.82
2023-07-24T02:35:10.083Z,8.27
2023-07-24T02:40:14.375Z,9.43
2023-07-24T02:45:19.097Z,8.50
2023-07-24T02:50:22.417Z,7.38
2023-07-24T02:55:25.724Z,5.88
2023-07-24T03:00:30.425Z,8.50
2023-07-24T03:05:35.960Z,9.30
2023-07-24T03:10:42.626Z,6.40
2023-07-24T03:15:54.863Z,8.07
2023-07-24T03:21:00.509Z,10.02
2023-07-24T03:26:03.781Z,8.35
2023-07-24T03:31:08.589Z,7.25
2023-07-24T03:36:12.028Z,9.38
2023-07-24T03:41:15.355Z,9.88
2023-07-24T03:46:20.053Z,10.00
2023-07-24T03:51:23.351Z,9.57
2023-07-24T03:56:26.705Z,10.68
2023-07-24T04:01:31.429Z,9.35
2023-07-24T04:06:34.679Z,11.93
2023-07-24T04:11:39.427Z,9.20
2023-07-24T04:16:44.350Z,10.60
2023-07-24T04:21:47.630Z,10.43
2023-07-24T04:26:50.913Z,9.50
2023-07-24T04:31:55.704Z,12.68
2023-07-24T04:36:59.033Z,7.80
2023-07-24T04:42:02.326Z,8.85
2023-07-24T04:47:07.134Z,6.88
2023-07-24T04:52:10.447Z,7.47
2023-07-24T04:57:13.940Z,8.65
2023-07-24T05:02:18.743Z,8.27
2023-07-24T05:07:22.122Z,8.27
2023-07-24T05:12:25.421Z,8.50
2023-07-24T05:17:30.302Z,9.07
